Time;durP1;ratioP1;P1;durP2;ratioP2;P2;SDS_P1;SDS_P2;PMS_P1;PMS_P2;Temp;Humidity;BMP_temperature;BMP_pressure;BME280_temperature;BME280_humidity;BME280_pressure;Samples;Min_cycle;Max_cycle;Signal;HPM_P1;HPM_P2
2023/05/23 00:00:46;;;;;;;23.43;21.23;;;17.50;99.90;;;;;;4972937;28;20299;-54
2023/05/23 00:03:14;;;;;;;22.83;20.63;;;17.40;99.90;;;;;;4973901;28;20653;-52
2023/05/23 00:05:43;;;;;;;24.03;21.77;;;17.20;99.90;;;;;;4981727;28;20704;-53
2023/05/23 00:08:11;;;;;;;24.67;22.37;;;17.20;99.90;;;;;;4986601;28;20234;-54
2023/05/23 00:10:40;;;;;;;27.60;25.03;;;17.20;99.90;;;;;;4993249;28;20223;-53
2023/05/23 00:13:11;;;;;;;26.77;24.40;;;17.10;99.90;;;;;;4993281;28;20228;-54
2023/05/23 00:15:40;;;;;;;27.97;25.53;;;17.00;99.90;;;;;;4974733;28;20216;-53
2023/05/23 00:18:09;;;;;;;28.70;26.27;;;17.00;99.90;;;;;;4973853;28;20754;-55
2023/05/23 00:20:39;;;;;;;29.67;27.00;;;17.00;99.90;;;;;;4973676;28;20236;-52
2023/05/23 00:23:08;;;;;;;30.43;27.70;;;16.90;99.90;;;;;;4973777;28;20730;-55
2023/05/23 00:25:37;;;;;;;27.73;25.43;;;16.90;99.90;;;;;;4973592;28;20317;-53
2023/05/23 00:28:06;;;;;;;31.63;28.83;;;16.90;99.90;;;;;;4973747;28;20319;-54
2023/05/23 00:30:34;;;;;;;31.53;28.57;;;16.80;99.90;;;;;;4974985;28;20240;-53
2023/05/23 00:33:03;;;;;;;30.73;27.97;;;16.80;99.90;;;;;;4958645;29;20260;-53
2023/05/23 00:35:31;;;;;;;34.03;30.83;;;16.70;99.90;;;;;;4981577;28;20625;-53
2023/05/23 00:38:01;;;;;;;33.70;30.67;;;16.70;99.90;;;;;;4988806;28;20223;-54
2023/05/23 00:40:29;;;;;;;32.57;29.67;;;16.60;99.90;;;;;;4988206;28;20227;-53
2023/05/23 00:42:57;;;;;;;34.23;30.97;;;16.60;99.90;;;;;;4992928;28;20896;-54
2023/05/23 00:45:26;;;;;;;36.73;33.30;;;16.60;99.90;;;;;;4982151;28;20303;-54
2023/05/23 00:47:55;;;;;;;39.57;35.57;;;16.60;99.90;;;;;;4976252;28;20238;-53
2023/05/23 00:50:23;;;;;;;37.80;34.13;;;16.60;99.90;;;;;;4977397;28;20339;-54
2023/05/23 00:52:51;;;;;;;41.47;37.47;;;16.50;99.90;;;;;;4988624;28;20252;-53
2023/05/23 00:55:20;;;;;;;40.43;36.23;;;16.50;99.90;;;;;;4996786;28;20219;-52
2023/05/23 00:57:48;;;;;;;41.83;37.57;;;16.50;99.90;;;;;;4996609;28;20620;-52
2023/05/23 01:00:18;;;;;;;42.03;37.77;;;16.40;99.90;;;;;;4976153;28;20239;-54
2023/05/23 01:02:50;;;;;;;41.47;36.90;;;16.40;99.90;;;;;;4973736;28;20580;-53
2023/05/23 01:05:21;;;;;;;40.30;35.20;;;16.40;99.90;;;;;;4986928;28;20222;-52
2023/05/23 01:07:50;;;;;;;40.37;35.63;;;16.30;99.90;;;;;;4987067;28;20594;-53
2023/05/23 01:10:21;;;;;;;40.87;33.70;;;16.40;99.90;;;;;;4996470;28;20254;-52
2023/05/23 01:13:00;;;;;;;38.80;34.43;;;16.30;99.90;;;;;;4996275;28;20227;-54
2023/05/23 01:15:32;;;;;;;37.27;33.17;;;16.30;99.90;;;;;;4984449;28;20222;-52
2023/05/23 01:18:08;;;;;;;42.47;33.07;;;16.20;99.90;;;;;;4966758;28;20286;-54
2023/05/23 01:20:43;;;;;;;36.27;30.57;;;16.20;99.90;;;;;;4957418;28;20310;-54
2023/05/23 01:23:29;;;;;;;37.00;30.60;;;16.20;99.90;;;;;;4957437;28;20255;-53
2023/05/23 01:26:12;;;;;;;34.97;29.63;;;16.20;99.90;;;;;;4956042;28;20425;-55
2023/05/23 01:28:45;;;;;;;40.97;30.27;;;16.10;99.90;;;;;;4962364;28;20309;-53
2023/05/23 01:31:16;;;;;;;36.23;28.63;;;16.00;99.90;;;;;;4970875;28;20259;-53
2023/05/23 01:33:45;;;;;;;35.70;29.27;;;16.00;99.90;;;;;;4977083;28;20222;-52
2023/05/23 01:36:14;;;;;;;38.57;30.13;;;16.00;99.90;;;;;;4994577;28;20268;-55
2023/05/23 01:38:42;;;;;;;37.37;29.77;;;16.00;99.90;;;;;;4979226;28;20261;-54
2023/05/23 01:41:10;;;;;;;35.33;28.33;;;16.00;99.90;;;;;;4975698;28;20219;-53
2023/05/23 01:43:38;;;;;;;32.57;26.43;;;15.90;99.90;;;;;;4974905;28;20239;-54
2023/05/23 01:46:09;;;;;;;37.00;28.57;;;15.90;99.90;;;;;;4974722;28;20262;-51
2023/05/23 01:48:38;;;;;;;32.57;27.07;;;15.90;99.90;;;;;;4976485;28;20228;-50
2023/05/23 01:51:06;;;;;;;38.63;30.37;;;15.90;99.90;;;;;;4976271;28;20223;-54
2023/05/23 01:53:36;;;;;;;38.67;30.43;;;15.90;99.90;;;;;;4975668;28;20254;-52
2023/05/23 01:56:05;;;;;;;38.23;29.97;;;15.90;99.90;;;;;;4974470;28;20322;-54
2023/05/23 01:58:33;;;;;;;34.57;30.10;;;15.80;99.90;;;;;;4975921;28;20282;-53
2023/05/23 02:01:01;;;;;;;36.80;29.73;;;15.80;99.90;;;;;;4973684;28;20264;-53
2023/05/23 02:03:32;;;;;;;40.43;29.40;;;15.80;99.90;;;;;;4974665;28;20226;-53
2023/05/23 02:06:00;;;;;;;41.07;31.63;;;15.80;99.90;;;;;;4987156;28;20223;-52
2023/05/23 02:08:28;;;;;;;36.67;30.40;;;15.80;99.90;;;;;;4989267;28;20685;-53
2023/05/23 02:10:56;;;;;;;36.50;29.70;;;15.80;99.90;;;;;;4995397;28;20230;-52
2023/05/23 02:13:24;;;;;;;40.20;32.23;;;15.80;99.90;;;;;;4995256;28;20246;-52
2023/05/23 02:15:52;;;;;;;38.70;31.50;;;15.70;99.90;;;;;;4978844;28;20227;-53
2023/05/23 02:18:20;;;;;;;40.37;32.17;;;15.70;99.90;;;;;;4975670;28;20305;-53
2023/05/23 02:20:52;;;;;;;40.20;33.03;;;15.60;99.90;;;;;;4974466;28;20317;-53
2023/05/23 02:23:20;;;;;;;38.23;32.30;;;15.60;99.90;;;;;;4975659;28;20250;-54
2023/05/23 02:25:48;;;;;;;37.10;30.50;;;15.60;99.90;;;;;;4975401;28;20227;-50
2023/05/23 02:28:16;;;;;;;42.43;32.17;;;15.60;99.90;;;;;;4974268;28;20231;-53
2023/05/23 02:30:44;;;;;;;36.97;30.50;;;15.60;99.90;;;;;;4974643;28;20602;-53
2023/05/23 02:33:13;;;;;;;39.30;30.60;;;15.60;99.90;;;;;;4971031;28;20631;-53
2023/05/23 02:35:41;;;;;;;43.10;31.13;;;15.50;99.90;;;;;;4977225;28;20225;-51
2023/05/23 02:38:11;;;;;;;39.50;31.03;;;15.50;99.90;;;;;;4986416;28;20234;-51
2023/05/23 02:40:41;;;;;;;38.17;30.17;;;15.50;99.90;;;;;;4986153;28;20269;-53
2023/05/23 02:43:09;;;;;;;41.93;30.90;;;15.50;99.90;;;;;;4975335;28;20238;-55
2023/05/23 02:45:37;;;;;;;40.90;30.87;;;15.50;99.90;;;;;;4974494;28;20218;-55
2023/05/23 02:48:06;;;;;;;43.13;30.40;;;15.50;99.90;;;;;;4973011;28;20245;-51
2023/05/23 02:50:34;;;;;;;37.27;29.50;;;15.50;99.90;;;;;;4975077;28;20634;-53
2023/05/23 02:53:02;;;;;;;43.47;30.90;;;15.40;99.90;;;;;;4972911;28;20236;-53
2023/05/23 02:55:32;;;;;;;41.57;30.53;;;15.40;99.90;;;;;;4973660;28;20232;-52
2023/05/23 02:58:00;;;;;;;38.83;29.03;;;15.40;99.90;;;;;;4974728;28;20237;-53
2023/05/23 03:00:28;;;;;;;42.03;31.23;;;15.40;99.90;;;;;;4968734;28;20321;-52
2023/05/23 03:02:57;;;;;;;40.57;28.37;;;15.40;99.90;;;;;;4959819;28;20323;-53
2023/05/23 03:05:25;;;;;;;39.10;28.60;;;15.40;99.90;;;;;;4972840;28;20774;-54
2023/05/23 03:07:57;;;;;;;36.30;28.57;;;15.40;99.90;;;;;;4986057;28;20272;-53
2023/05/23 03:10:28;;;;;;;39.37;28.10;;;15.40;99.90;;;;;;4992880;28;20230;-53
2023/05/23 03:12:57;;;;;;;39.53;29.40;;;15.40;99.90;;;;;;4993113;28;20322;-54
2023/05/23 03:15:25;;;;;;;37.37;28.27;;;15.30;99.90;;;;;;4982541;28;20226;-53
2023/05/23 03:17:54;;;;;;;38.53;28.70;;;15.30;99.90;;;;;;4972368;28;20234;-53
2023/05/23 03:20:22;;;;;;;35.77;28.57;;;15.30;99.90;;;;;;4973151;28;20568;-54
2023/05/23 03:22:50;;;;;;;37.37;26.60;;;15.40;99.90;;;;;;4968653;28;20234;-52
2023/05/23 03:25:18;;;;;;;37.83;27.70;;;15.40;99.90;;;;;;4955386;28;20294;-52
2023/05/23 03:27:46;;;;;;;32.03;25.60;;;15.40;99.90;;;;;;4954981;28;20707;-51
2023/05/23 03:30:15;;;;;;;37.50;27.73;;;15.40;99.90;;;;;;4972282;28;20314;-53
2023/05/23 03:32:43;;;;;;;34.57;26.70;;;15.30;99.90;;;;;;4956720;28;20744;-51
2023/05/23 03:35:11;;;;;;;40.40;28.63;;;15.30;99.90;;;;;;4972001;28;20221;-52
2023/05/23 03:37:40;;;;;;;36.40;27.17;;;15.30;99.90;;;;;;4985731;28;20214;-52
2023/05/23 03:40:09;;;;;;;36.20;26.97;;;15.30;99.90;;;;;;4992421;28;20241;-51
2023/05/23 03:42:38;;;;;;;36.20;25.93;;;15.30;99.90;;;;;;4992212;28;20229;-53
2023/05/23 03:45:07;;;;;;;38.97;27.60;;;15.30;99.90;;;;;;4984822;28;20281;-52
2023/05/23 03:47:37;;;;;;;41.63;28.40;;;15.30;99.90;;;;;;4971813;28;20325;-52
2023/05/23 03:50:06;;;;;;;38.37;27.13;;;15.30;99.90;;;;;;4972710;28;20227;-54
2023/05/23 03:52:35;;;;;;;38.83;27.37;;;15.30;99.90;;;;;;4972832;28;20598;-52
2023/05/23 03:55:03;;;;;;;37.73;26.70;;;15.30;99.90;;;;;;4973457;28;20237;-52
2023/05/23 03:57:31;;;;;;;39.40;28.83;;;15.30;99.90;;;;;;4973522;28;20258;-53
2023/05/23 03:59:59;;;;;;;34.47;27.00;;;15.30;99.90;;;;;;4968048;28;20261;-51
2023/05/23 04:02:28;;;;;;;39.37;27.20;;;15.30;99.90;;;;;;4967243;28;20227;-52
2023/05/23 04:04:58;;;;;;;40.33;27.67;;;15.30;99.90;;;;;;4984476;28;20702;-55
2023/05/23 04:07:26;;;;;;;42.83;28.63;;;15.30;99.90;;;;;;4976331;28;20223;-53
2023/05/23 04:09:54;;;;;;;45.73;30.03;;;15.30;99.90;;;;;;4975291;28;20295;-54
2023/05/23 04:12:23;;;;;;;42.13;29.33;;;15.20;99.90;;;;;;4972493;28;20254;-52
2023/05/23 04:14:51;;;;;;;41.70;30.23;;;15.30;99.90;;;;;;4973493;28;20229;-52
2023/05/23 04:17:20;;;;;;;44.20;31.07;;;15.30;99.90;;;;;;4969191;28;20229;-54
2023/05/23 04:19:48;;;;;;;53.63;32.73;;;15.30;99.90;;;;;;4972010;28;20230;-54
2023/05/23 04:22:17;;;;;;;50.60;31.23;;;15.30;99.90;;;;;;4972110;28;20249;-53
2023/05/23 04:24:47;;;;;;;46.10;31.10;;;15.30;99.90;;;;;;4971177;28;20262;-52
2023/05/23 04:27:15;;;;;;;42.47;31.00;;;15.20;99.90;;;;;;4961364;28;20627;-53
2023/05/23 04:29:45;;;;;;;48.37;32.80;;;15.20;99.90;;;;;;4969148;28;20310;-54
2023/05/23 04:32:15;;;;;;;45.40;32.87;;;15.30;99.90;;;;;;4968870;28;20242;-52
2023/05/23 04:34:43;;;;;;;47.13;34.07;;;15.20;99.90;;;;;;4973207;28;20736;-52
2023/05/23 04:37:13;;;;;;;55.27;35.60;;;15.30;99.90;;;;;;4983653;28;20222;-54
2023/05/23 04:39:42;;;;;;;53.97;34.60;;;15.20;99.90;;;;;;4991648;28;20226;-53
2023/05/23 04:42:34;;;;;;;56.10;36.63;;;15.20;99.90;;;;;;4970554;28;20238;-54
2023/05/23 04:45:12;;;;;;;53.03;34.57;;;15.20;99.90;;;;;;4977789;28;20704;-52
2023/05/23 04:48:06;;;;;;;50.23;34.47;;;15.10;99.90;;;;;;4969609;28;20275;-54
2023/05/23 04:50:39;;;;;;;51.30;35.43;;;15.10;99.90;;;;;;4974969;28;20219;-53
2023/05/23 04:53:07;;;;;;;47.60;33.03;;;15.10;99.90;;;;;;4969140;28;20664;-53
2023/05/23 04:55:37;;;;;;;52.53;34.23;;;15.20;99.90;;;;;;4966485;28;20219;-53
2023/05/23 04:58:11;;;;;;;44.77;33.60;;;15.10;99.90;;;;;;4963388;28;20637;-52
2023/05/23 05:00:40;;;;;;;42.43;33.37;;;15.10;99.90;;;;;;4971467;28;20769;-53
2023/05/23 05:03:10;;;;;;;42.50;32.13;;;15.10;99.90;;;;;;4956744;28;20290;-52
2023/05/23 05:05:42;;;;;;;39.53;31.83;;;15.10;99.90;;;;;;5004213;28;20226;-55
2023/05/23 05:08:13;;;;;;;39.57;31.70;;;15.10;99.90;;;;;;4969119;28;20229;-52
2023/05/23 05:10:42;;;;;;;39.30;31.20;;;15.10;99.90;;;;;;4961199;28;20307;-54
2023/05/23 05:13:11;;;;;;;40.13;32.40;;;15.00;99.90;;;;;;4953282;28;20583;-54
2023/05/23 05:15:44;;;;;;;36.33;30.30;;;15.00;99.90;;;;;;4956111;28;20226;-56
2023/05/23 05:18:13;;;;;;;39.00;32.57;;;15.00;99.90;;;;;;4957699;28;20230;-54
2023/05/23 05:20:41;;;;;;;36.00;30.80;;;15.00;99.90;;;;;;4953968;28;20235;-55
2023/05/23 05:23:10;;;;;;;37.97;29.77;;;15.00;99.90;;;;;;4959089;28;21310;-55
2023/05/23 05:25:40;;;;;;;35.03;30.33;;;14.90;99.90;;;;;;4956366;28;20238;-53
2023/05/23 05:28:09;;;;;;;33.40;28.80;;;15.00;99.90;;;;;;4958380;28;20642;-54
2023/05/23 05:30:47;;;;;;;32.60;27.67;;;15.00;99.90;;;;;;4955124;28;20258;-53
2023/05/23 05:33:17;;;;;;;31.27;26.17;;;15.10;99.90;;;;;;4961262;28;20321;-56
2023/05/23 05:35:45;;;;;;;31.53;26.23;;;15.10;99.90;;;;;;4975737;28;20241;-56
2023/05/23 05:38:13;;;;;;;29.70;26.50;;;15.10;99.90;;;;;;4958431;28;20228;-53
2023/05/23 05:40:42;;;;;;;30.63;26.17;;;15.00;99.90;;;;;;4955802;28;20226;-54
2023/05/23 05:43:12;;;;;;;38.97;31.80;;;14.90;99.90;;;;;;4957293;28;20334;-56
2023/05/23 05:45:41;;;;;;;42.87;34.83;;;14.90;99.90;;;;;;4955667;28;20234;-55
2023/05/23 05:48:10;;;;;;;43.07;36.30;;;14.90;99.90;;;;;;4960743;28;20701;-54
2023/05/23 05:50:39;;;;;;;41.83;35.50;;;14.90;99.90;;;;;;4953294;28;21399;-53
2023/05/23 05:53:07;;;;;;;40.43;35.93;;;14.80;99.90;;;;;;4956756;28;20235;-55
2023/05/23 05:55:35;;;;;;;39.87;33.70;;;14.80;99.90;;;;;;4980940;28;20899;-54
2023/05/23 05:58:03;;;;;;;39.83;34.33;;;14.80;99.90;;;;;;4957500;28;20229;-53
2023/05/23 06:00:44;;;;;;;39.60;34.10;;;14.80;99.90;;;;;;4954211;28;20243;-53
2023/05/23 06:03:13;;;;;;;37.20;31.50;;;14.90;99.90;;;;;;4956358;28;20234;-52
2023/05/23 06:05:53;;;;;;;31.90;28.43;;;14.90;99.90;;;;;;4956540;28;20590;-56
2023/05/23 06:08:21;;;;;;;30.90;27.23;;;15.00;99.90;;;;;;4956710;28;20227;-51
2023/05/23 06:10:49;;;;;;;26.10;23.43;;;15.00;99.90;;;;;;4954540;28;20757;-55
2023/05/23 06:13:18;;;;;;;25.47;22.77;;;15.00;99.90;;;;;;4959988;28;20250;-53
2023/05/23 06:15:52;;;;;;;22.73;20.40;;;15.00;99.90;;;;;;4975254;28;20242;-54
2023/05/23 06:18:22;;;;;;;21.77;19.43;;;15.00;99.90;;;;;;4956291;28;20318;-53
2023/05/23 06:20:51;;;;;;;21.37;17.87;;;15.00;99.90;;;;;;4958520;28;20238;-55
2023/05/23 06:23:21;;;;;;;18.77;16.87;;;14.90;99.90;;;;;;4959133;28;20741;-53
2023/05/23 06:25:49;;;;;;;17.43;15.53;;;15.00;99.90;;;;;;4958341;28;20318;-55
2023/05/23 06:28:17;;;;;;;17.40;15.13;;;14.90;99.90;;;;;;4958162;28;20287;-54
2023/05/23 06:30:46;;;;;;;16.43;14.03;;;14.90;99.90;;;;;;4956071;28;20230;-55
2023/05/23 06:33:16;;;;;;;14.67;12.93;;;14.90;99.90;;;;;;4960615;28;20253;-52
2023/05/23 06:35:44;;;;;;;15.43;13.03;;;14.90;99.90;;;;;;4961357;28;20265;-54
2023/05/23 06:38:15;;;;;;;14.13;12.57;;;14.90;99.90;;;;;;4960403;28;20235;-54
2023/05/23 06:40:45;;;;;;;16.20;14.50;;;14.90;99.90;;;;;;4958902;28;20939;-52
2023/05/23 06:43:14;;;;;;;16.87;13.60;;;14.90;99.90;;;;;;4956174;28;20317;-53
2023/05/23 06:45:51;;;;;;;16.03;14.33;;;15.00;99.90;;;;;;4956556;28;20789;-55
2023/05/23 06:48:21;;;;;;;18.80;13.83;;;15.00;99.90;;;;;;4958104;28;20222;-52
2023/05/23 06:50:49;;;;;;;15.93;14.33;;;15.00;99.90;;;;;;4977525;28;20694;-54
2023/05/23 06:53:18;;;;;;;16.03;14.30;;;15.00;99.90;;;;;;4954336;28;20226;-56
2023/05/23 06:55:48;;;;;;;18.37;14.93;;;15.20;99.90;;;;;;4959426;28;20230;-56
2023/05/23 06:58:19;;;;;;;20.03;13.67;;;15.20;99.90;;;;;;4959225;28;20289;-54
2023/05/23 07:00:47;;;;;;;17.20;12.70;;;15.10;99.90;;;;;;4958419;28;20252;-55
2023/05/23 07:03:29;;;;;;;13.73;10.87;;;15.00;99.90;;;;;;4955657;28;20230;-56
2023/05/23 07:06:01;;;;;;;15.63;9.40;;;14.90;99.90;;;;;;4959950;28;20234;-54
2023/05/23 07:08:30;;;;;;;12.57;8.50;;;14.90;99.90;;;;;;4960072;28;20267;-56
2023/05/23 07:11:00;;;;;;;11.90;8.00;;;15.00;99.90;;;;;;4972438;28;21057;-56
2023/05/23 07:13:32;;;;;;;9.83;7.33;;;15.10;99.90;;;;;;4956878;28;20242;-55
2023/05/23 07:16:00;;;;;;;9.33;6.80;;;15.00;99.90;;;;;;4959231;28;20226;-54
2023/05/23 07:18:30;;;;;;;7.67;5.70;;;15.00;99.90;;;;;;4958666;28;20223;-54
2023/05/23 07:20:58;;;;;;;7.07;5.90;;;14.90;99.90;;;;;;4975664;28;20305;-53
2023/05/23 07:23:26;;;;;;;8.97;5.20;;;14.80;99.90;;;;;;4956489;28;20227;-56
2023/05/23 07:25:55;;;;;;;6.67;4.73;;;14.70;99.90;;;;;;4958972;28;20222;-55
2023/05/23 07:28:44;;;;;;;10.63;5.50;;;14.70;99.90;;;;;;4973622;28;20997;-54
2023/05/23 07:31:13;;;;;;;9.03;5.40;;;14.60;99.90;;;;;;4955151;28;21253;-51
2023/05/23 07:33:44;;;;;;;8.83;5.93;;;14.50;99.90;;;;;;4956687;28;20223;-53
2023/05/23 07:36:18;;;;;;;10.87;6.00;;;14.40;99.90;;;;;;4956685;28;20568;-52
2023/05/23 07:38:46;;;;;;;13.73;5.90;;;14.30;99.90;;;;;;4957139;28;20806;-55
2023/05/23 07:41:14;;;;;;;13.07;6.20;;;14.30;99.90;;;;;;4956710;28;20230;-54
2023/05/23 07:43:42;;;;;;;14.77;5.77;;;14.20;99.90;;;;;;4959880;28;20221;-53
2023/05/23 07:46:11;;;;;;;10.67;5.53;;;14.10;99.90;;;;;;4958159;28;20310;-52
2023/05/23 07:48:39;;;;;;;10.83;5.77;;;14.10;99.90;;;;;;4958739;28;20220;-54
2023/05/23 07:51:08;;;;;;;9.33;4.97;;;14.00;99.90;;;;;;4955950;28;20618;-53
2023/05/23 07:53:38;;;;;;;11.87;5.67;;;14.00;99.90;;;;;;4961107;28;20749;-54
2023/05/23 07:56:09;;;;;;;15.80;5.90;;;14.00;99.90;;;;;;4956508;28;20295;-56
2023/05/23 07:58:40;;;;;;;11.53;5.87;;;14.00;99.90;;;;;;4959133;28;20292;-55
2023/05/23 08:01:08;;;;;;;14.47;5.80;;;13.90;99.90;;;;;;4956089;28;20619;-54
2023/05/23 08:04:02;;;;;;;11.43;5.50;;;13.90;99.90;;;;;;4956016;28;20214;-56
2023/05/23 08:06:47;;;;;;;12.07;5.33;;;13.80;99.90;;;;;;4975030;28;20544;-55
2023/05/23 08:09:52;;;;;;;10.87;5.63;;;13.80;99.90;;;;;;4955993;28;20222;-53
2023/05/23 08:12:21;;;;;;;16.97;5.60;;;13.80;99.90;;;;;;4956474;28;20303;-54
2023/05/23 08:14:58;;;;;;;15.17;6.27;;;13.70;99.90;;;;;;4956052;28;20210;-55
2023/05/23 08:17:31;;;;;;;15.80;5.80;;;13.80;99.90;;;;;;4955639;28;20214;-55
2023/05/23 08:20:03;;;;;;;12.63;5.03;;;13.70;99.90;;;;;;4954138;28;20690;-54
2023/05/23 08:22:33;;;;;;;10.63;5.07;;;13.80;99.90;;;;;;4954473;28;20214;-55
2023/05/23 08:25:02;;;;;;;10.70;4.73;;;13.80;99.90;;;;;;4955558;28;20210;-53
2023/05/23 08:27:31;;;;;;;9.03;4.00;;;13.70;99.90;;;;;;4954638;28;20207;-54
2023/05/23 08:30:07;;;;;;;8.97;4.20;;;13.60;99.90;;;;;;4971663;28;21064;-55
2023/05/23 08:32:35;;;;;;;8.33;3.90;;;13.60;99.90;;;;;;4970795;28;21631;-54
2023/05/23 08:35:04;;;;;;;8.20;3.80;;;13.60;99.90;;;;;;4957702;28;20231;-56
2023/05/23 08:37:34;;;;;;;7.77;3.80;;;13.40;99.90;;;;;;4956749;28;20225;-53
2023/05/23 08:40:02;;;;;;;7.73;3.57;;;13.30;99.90;;;;;;4957395;28;20230;-54
2023/05/23 08:42:45;;;;;;;8.50;3.47;;;13.30;99.90;;;;;;4958013;28;20378;-52
2023/05/23 08:45:15;;;;;;;8.10;3.50;;;13.40;99.90;;;;;;4956333;28;20321;-53
2023/05/23 08:47:44;;;;;;;6.83;3.03;;;13.30;99.90;;;;;;4952965;28;20233;-54
2023/05/23 08:50:14;;;;;;;8.47;3.27;;;13.30;99.90;;;;;;4951405;28;20231;-53
2023/05/23 08:52:53;;;;;;;6.67;2.90;;;13.40;99.90;;;;;;4958870;28;21125;-55
2023/05/23 08:55:23;;;;;;;6.33;3.10;;;13.30;99.90;;;;;;4960082;28;20292;-54
2023/05/23 08:57:52;;;;;;;10.37;3.40;;;13.30;99.90;;;;;;4960889;28;20239;-54
2023/05/23 09:00:30;;;;;;;11.63;3.53;;;13.20;99.90;;;;;;4960042;28;20223;-54
2023/05/23 09:02:58;;;;;;;10.47;3.77;;;13.20;99.90;;;;;;4972777;28;20238;-52
2023/05/23 09:05:48;;;;;;;9.77;3.30;;;13.20;99.90;;;;;;4936562;28;20602;-53
2023/05/23 09:08:18;;;;;;;9.23;3.30;;;13.20;99.90;;;;;;4959084;28;20234;-54
2023/05/23 09:10:49;;;;;;;8.23;2.93;;;13.20;99.90;;;;;;4955844;28;20242;-56
2023/05/23 09:13:19;;;;;;;10.20;3.40;;;13.20;99.90;;;;;;4958856;28;20241;-55
2023/05/23 09:16:02;;;;;;;12.10;3.60;;;13.10;99.90;;;;;;4971713;28;20230;-55
2023/05/23 09:18:38;;;;;;;13.13;3.50;;;13.10;99.90;;;;;;4957288;28;20235;-52
2023/05/23 09:21:08;;;;;;;9.50;3.50;;;13.10;99.90;;;;;;4955689;28;20297;-55
2023/05/23 09:23:41;;;;;;;9.87;3.70;;;13.10;99.90;;;;;;4957968;28;20237;-53
2023/05/23 09:26:12;;;;;;;12.60;3.83;;;13.10;99.90;;;;;;4957467;28;20220;-55
2023/05/23 09:28:43;;;;;;;10.70;3.20;;;13.10;99.90;;;;;;4956159;28;20210;-55
2023/05/23 09:31:11;;;;;;;10.50;3.67;;;13.10;99.90;;;;;;4957916;28;20270;-54
2023/05/23 09:33:42;;;;;;;11.47;3.67;;;13.10;99.90;;;;;;4956997;28;20247;-56
2023/05/23 09:36:11;;;;;;;13.60;3.90;;;13.10;99.90;;;;;;4958660;28;20689;-50
2023/05/23 09:38:41;;;;;;;13.27;3.57;;;13.10;99.90;;;;;;4957578;28;20604;-56
2023/05/23 09:41:11;;;;;;;12.60;3.73;;;13.20;99.90;;;;;;4957196;28;20249;-56
2023/05/23 09:43:39;;;;;;;9.50;3.37;;;13.30;99.90;;;;;;4960656;28;20228;-55
2023/05/23 09:46:11;;;;;;;9.53;3.00;;;13.30;99.90;;;;;;4961828;28;20776;-53
2023/05/23 09:48:39;;;;;;;10.03;3.13;;;13.30;99.90;;;;;;4962194;28;20223;-54
2023/05/23 09:51:09;;;;;;;16.67;3.33;;;13.30;99.90;;;;;;4959833;28;20700;-54
2023/05/23 09:53:38;;;;;;;9.43;3.43;;;13.30;99.90;;;;;;4961827;28;20642;-54
2023/05/23 09:56:11;;;;;;;13.67;3.37;;;13.20;99.90;;;;;;4961838;28;20233;-55
2023/05/23 09:58:40;;;;;;;11.23;3.70;;;13.20;99.90;;;;;;4962393;28;20260;-56
2023/05/23 10:01:10;;;;;;;9.07;3.33;;;13.00;99.90;;;;;;4956973;28;20740;-52
2023/05/23 10:03:44;;;;;;;10.83;3.27;;;13.00;99.90;;;;;;4958127;28;20254;-52
2023/05/23 10:06:22;;;;;;;10.23;3.87;;;13.00;99.90;;;;;;4957420;28;20240;-55
2023/05/23 10:08:56;;;;;;;11.43;3.70;;;13.10;99.90;;;;;;4958668;28;20232;-53
2023/05/23 10:12:11;;;;;;;12.50;3.80;;;13.10;99.90;;;;;;4958503;28;20239;-55
2023/05/23 10:14:43;;;;;;;13.87;3.67;;;13.10;99.90;;;;;;4962696;28;20225;-56
2023/05/23 10:17:18;;;;;;;13.30;3.30;;;13.20;99.90;;;;;;4963121;28;20305;-55
2023/05/23 10:19:53;;;;;;;10.30;3.03;;;13.30;99.90;;;;;;4959865;28;20823;-54
2023/05/23 10:22:23;;;;;;;8.47;3.10;;;13.50;99.90;;;;;;4960759;28;20240;-54
2023/05/23 10:24:51;;;;;;;13.27;3.17;;;13.60;99.90;;;;;;4961662;28;20273;-53
2023/05/23 10:27:21;;;;;;;10.07;2.90;;;13.80;99.90;;;;;;4963401;28;20227;-56
2023/05/23 10:29:49;;;;;;;8.07;2.43;;;13.80;99.90;;;;;;4956613;28;20577;-55
2023/05/23 10:32:18;;;;;;;10.17;3.53;;;13.70;99.90;;;;;;4956947;28;20609;-56
2023/05/23 10:34:56;;;;;;;11.10;3.60;;;13.80;99.90;;;;;;4957878;28;20254;-55
2023/05/23 10:37:31;;;;;;;8.37;3.10;;;13.90;99.90;;;;;;4958721;28;20891;-57
2023/05/23 10:40:04;;;;;;;10.27;3.20;;;13.80;99.90;;;;;;4956858;28;22065;-56
2023/05/23 10:42:43;;;;;;;9.57;2.67;;;13.50;99.90;;;;;;4960418;28;20254;-57
2023/05/23 10:45:16;;;;;;;10.10;3.00;;;13.70;99.90;;;;;;4961304;28;20634;-54
2023/05/23 10:47:44;;;;;;;13.03;3.93;;;13.80;99.90;;;;;;4965348;28;20248;-53
2023/05/23 10:50:13;;;;;;;10.50;3.30;;;14.10;99.90;;;;;;4963332;28;20230;-56
2023/05/23 10:52:42;;;;;;;15.73;3.73;;;14.30;99.90;;;;;;4964922;28;20232;-54
2023/05/23 10:55:16;;;;;;;14.23;3.80;;;14.50;99.90;;;;;;4961583;28;20227;-54
2023/05/23 10:57:45;;;;;;;9.73;3.40;;;14.70;99.90;;;;;;4959834;28;20702;-55
2023/05/23 11:00:16;;;;;;;13.63;3.60;;;14.60;99.90;;;;;;4957648;28;20258;-56
2023/05/23 11:02:54;;;;;;;10.77;3.33;;;14.40;99.90;;;;;;4960027;28;21882;-58
2023/05/23 11:05:26;;;;;;;13.90;3.30;;;14.40;99.90;;;;;;4961245;28;20237;-55
2023/05/23 11:08:10;;;;;;;12.07;3.33;;;14.40;99.90;;;;;;4962913;28;20237;-55
2023/05/23 11:10:53;;;;;;;12.53;4.00;;;14.40;99.90;;;;;;4960491;28;20765;-56
2023/05/23 11:13:23;;;;;;;13.90;3.80;;;14.80;99.90;;;;;;4962831;28;20587;-56
2023/05/23 11:15:51;;;;;;;13.53;3.77;;;15.20;99.90;;;;;;4961015;28;20262;-54
2023/05/23 11:18:24;;;;;;;16.60;4.10;;;15.30;99.90;;;;;;4973870;28;20263;-55
2023/05/23 11:20:53;;;;;;;13.67;3.90;;;15.20;99.90;;;;;;4960258;28;20223;-56
2023/05/23 11:23:22;;;;;;;14.07;4.10;;;14.90;99.90;;;;;;4959774;28;20321;-54
2023/05/23 11:25:52;;;;;;;12.70;3.53;;;14.50;99.90;;;;;;4958096;28;20721;-56
2023/05/23 11:28:22;;;;;;;14.83;4.23;;;14.60;99.90;;;;;;4960381;28;20234;-56
2023/05/23 11:30:51;;;;;;;13.00;3.97;;;14.90;99.90;;;;;;4956474;28;20245;-56
2023/05/23 11:33:20;;;;;;;11.77;3.47;;;15.20;99.90;;;;;;4956122;28;21130;-54
2023/05/23 11:35:50;;;;;;;17.50;4.30;;;14.90;99.90;;;;;;4956358;28;20241;-54
2023/05/23 11:38:20;;;;;;;15.33;4.37;;;14.90;99.90;;;;;;4956811;28;20571;-55
2023/05/23 11:40:48;;;;;;;12.90;4.33;;;14.90;99.90;;;;;;4957266;28;20574;-54
2023/05/23 11:43:18;;;;;;;16.30;4.03;;;15.00;99.90;;;;;;4958602;28;20226;-57
2023/05/23 11:45:48;;;;;;;18.63;3.97;;;15.10;99.90;;;;;;4957547;28;20228;-55
2023/05/23 11:48:17;;;;;;;13.50;3.47;;;15.20;99.90;;;;;;4958201;28;20237;-54
2023/05/23 11:50:47;;;;;;;13.60;4.20;;;15.10;99.90;;;;;;4955432;28;20262;-54
2023/05/23 11:53:19;;;;;;;14.03;4.13;;;15.00;99.90;;;;;;4959101;28;20710;-53
2023/05/23 11:55:52;;;;;;;11.80;4.30;;;15.00;99.90;;;;;;4964329;28;20234;-55
2023/05/23 11:58:21;;;;;;;13.50;3.47;;;15.20;99.90;;;;;;4962549;28;21266;-54
2023/05/23 12:00:50;;;;;;;13.10;3.67;;;15.30;99.90;;;;;;4966072;28;20349;-57
2023/05/23 12:03:22;;;;;;;11.53;4.10;;;15.20;99.90;;;;;;4966046;28;20768;-55
2023/05/23 12:05:50;;;;;;;12.53;4.27;;;15.30;99.90;;;;;;4968667;28;20317;-54
2023/05/23 12:08:18;;;;;;;14.23;4.20;;;15.20;99.90;;;;;;4961483;28;20765;-53
2023/05/23 12:10:51;;;;;;;13.43;3.90;;;15.20;99.90;;;;;;4966717;28;20305;-54
2023/05/23 12:13:19;;;;;;;13.90;4.20;;;15.40;99.90;;;;;;4962642;28;21632;-56
2023/05/23 12:15:47;;;;;;;19.23;4.50;;;15.40;99.90;;;;;;4958588;28;20724;-55
2023/05/23 12:18:19;;;;;;;13.50;4.60;;;15.40;99.90;;;;;;4963325;28;20239;-54
2023/05/23 12:20:49;;;;;;;11.40;4.40;;;15.40;99.90;;;;;;4959368;28;20314;-52
2023/05/23 12:23:21;;;;;;;15.07;4.20;;;15.40;99.90;;;;;;4964560;28;20725;-55
2023/05/23 12:25:52;;;;;;;18.47;4.03;;;15.20;99.90;;;;;;4965005;28;20716;-56
2023/05/23 12:28:21;;;;;;;12.50;4.00;;;15.00;99.90;;;;;;4968553;28;20579;-52
2023/05/23 12:30:49;;;;;;;16.13;4.43;;;14.80;99.90;;;;;;4967830;28;20321;-53
2023/05/23 12:33:20;;;;;;;15.10;4.43;;;14.60;99.90;;;;;;4973082;28;20605;-53
2023/05/23 12:35:48;;;;;;;19.70;5.27;;;14.60;99.90;;;;;;4971641;28;20701;-54
2023/05/23 12:38:17;;;;;;;14.00;3.77;;;14.60;99.90;;;;;;4964748;28;20672;-53
2023/05/23 12:40:45;;;;;;;19.47;3.97;;;14.60;99.90;;;;;;4967246;28;20611;-53
2023/05/23 12:43:16;;;;;;;14.63;3.83;;;14.70;99.90;;;;;;4970000;28;20268;-52
2023/05/23 12:45:44;;;;;;;13.17;3.70;;;14.70;99.90;;;;;;4969953;28;20580;-54
2023/05/23 12:48:12;;;;;;;16.00;4.53;;;14.60;99.90;;;;;;4970274;28;20304;-53
2023/05/23 12:50:41;;;;;;;16.80;4.20;;;14.60;99.90;;;;;;4966250;28;20241;-54